Time;durP1;ratioP1;P1;durP2;ratioP2;P2;SDS_P1;SDS_P2;PMS_P1;PMS_P2;Temp;Humidity;BMP_temperature;BMP_pressure;BME280_temperature;BME280_humidity;BME280_pressure;Samples;Min_cycle;Max_cycle;Signal;HPM_P1;HPM_P2
2023/07/24 00:00:01;;;;;;;11.57;9.57;;;;;;;22.56;56.34;94870.72;5213337;22;20039;-47
2023/07/24 00:02:03;;;;;;;11.77;9.27;;;;;;;22.55;56.37;94863.75;5212748;22;20030;-47
2023/07/24 00:04:05;;;;;;;11.60;9.48;;;;;;;22.58;56.58;94871.31;5213714;22;20588;-47
2023/07/24 00:06:06;;;;;;;13.02;9.98;;;;;;;22.66;56.17;94865.63;5213942;22;20034;-43
2023/07/24 00:08:08;;;;;;;14.68;9.43;;;;;;;22.76;55.37;94863.22;5214430;22;20023;-46
2023/07/24 00:10:10;;;;;;;11.75;9.32;;;;;;;22.87;54.87;94858.91;5214001;22;20019;-47
2023/07/24 00:12:12;;;;;;;14.55;9.35;;;;;;;22.96;54.63;94854.84;5214487;22;20130;-45
2023/07/24 00:14:15;;;;;;;11.13;9.60;;;;;;;23.04;54.10;94856.41;5213055;22;20115;-47
2023/07/24 00:16:16;;;;;;;14.32;8.93;;;;;;;23.11;53.71;94857.09;5214724;22;20023;-48
2023/07/24 00:18:18;;;;;;;11.10;9.27;;;;;;;23.16;52.99;94857.19;5212848;22;20019;-48
2023/07/24 00:20:20;;;;;;;11.65;9.27;;;;;;;23.21;52.92;94857.31;5213639;22;20019;-47
2023/07/24 00:22:22;;;;;;;11.98;9.65;;;;;;;23.25;52.51;94853.13;5213456;22;20019;-46
2023/07/24 00:24:23;;;;;;;13.95;8.55;;;;;;;23.27;52.04;94856.38;5214455;22;20019;-46
2023/07/24 00:26:25;;;;;;;11.23;9.35;;;;;;;23.21;51.89;94857.31;5213991;22;20046;-45
2023/07/24 00:28:27;;;;;;;13.00;9.18;;;;;;;23.14;51.29;94853.94;5213236;22;20023;-45
2023/07/24 00:30:29;;;;;;;13.43;9.52;;;;;;;23.07;50.73;94861.28;5213801;22;20342;-48
2023/07/24 00:32:31;;;;;;;13.00;9.60;;;;;;;22.97;50.94;94855.66;5212926;22;20447;-50
2023/07/24 00:34:32;;;;;;;11.73;9.60;;;;;;;22.89;51.27;94856.84;5213266;22;20041;-46
2023/07/24 00:36:34;;;;;;;12.88;9.95;;;;;;;22.76;51.56;94855.19;5213565;22;20046;-44
2023/07/24 00:38:36;;;;;;;15.85;9.48;;;;;;;22.73;52.20;94849.50;5213341;22;20100;-46
2023/07/24 00:40:37;;;;;;;12.80;9.35;;;;;;;22.78;52.26;94854.94;5214079;22;20030;-48
2023/07/24 00:42:39;;;;;;;13.27;9.68;;;;;;;22.82;52.04;94854.28;5212864;22;20023;-46
2023/07/24 00:44:41;;;;;;;12.77;9.45;;;;;;;22.93;51.80;94849.16;5213173;22;20019;-44
2023/07/24 00:46:43;;;;;;;11.75;9.10;;;;;;;23.02;52.12;94853.97;5213756;22;20098;-44
2023/07/24 00:48:45;;;;;;;12.20;8.90;;;;;;;23.05;52.25;94858.00;5211438;22;20507;-45
2023/07/24 00:50:47;;;;;;;13.65;10.30;;;;;;;23.08;52.35;94850.34;5213836;22;20073;-45
2023/07/24 00:52:49;;;;;;;13.35;8.95;;;;;;;23.13;52.41;94855.00;5214300;22;20564;-45
2023/07/24 00:54:50;;;;;;;12.00;9.57;;;;;;;23.17;52.24;94856.16;5213579;22;20021;-50
2023/07/24 00:56:52;;;;;;;11.93;9.00;;;;;;;23.21;52.29;94845.78;5211828;22;20073;-45
2023/07/24 00:58:55;;;;;;;13.60;9.15;;;;;;;23.22;52.21;94848.25;5211530;22;20023;-50
2023/07/24 01:00:57;;;;;;;11.25;9.18;;;;;;;23.23;52.32;94846.38;5213679;22;20023;-45
2023/07/24 01:02:59;;;;;;;15.93;10.50;;;;;;;23.21;51.77;94841.28;5185279;22;20045;-45
2023/07/24 01:05:01;;;;;;;11.52;9.57;;;;;;;23.19;51.54;94840.69;5186103;22;20024;-46
2023/07/24 01:07:03;;;;;;;11.95;9.60;;;;;;;23.15;51.22;94838.72;5213190;22;20019;-45
2023/07/24 01:09:05;;;;;;;11.48;9.50;;;;;;;23.14;50.63;94839.78;5213525;22;20420;-46
2023/07/24 01:11:19;;;;;;;12.38;9.85;;;;;;;23.02;49.55;94842.47;5214462;22;20129;-43
2023/07/24 01:13:22;;;;;;;;;;;;;;;22.74;48.82;94849.28;5214215;22;20097;-44
2023/07/24 01:15:27;;;;;;;14.73;11.07;;;;;;;22.54;49.94;94851.44;5212851;22;19919;-47
2023/07/24 01:17:31;;;;;;;14.00;10.50;;;;;;;22.54;51.04;94840.75;5212539;22;20019;-46
2023/07/24 01:19:40;;;;;;;;;;;;;;;22.61;50.45;94842.28;5186516;22;20019;-43
2023/07/24 01:21:58;;;;;;;13.75;10.13;;;;;;;22.67;50.75;94836.03;5221248;22;19919;-51
2023/07/24 01:24:17;;;;;;;14.20;10.05;;;;;;;22.65;50.65;94822.09;5186048;22;20221;-45
2023/07/24 01:26:20;;;;;;;13.75;9.77;;;;;;;22.67;50.62;94830.69;5186459;22;20069;-43
2023/07/24 01:28:22;;;;;;;12.30;9.68;;;;;;;22.71;50.61;94831.03;5212389;22;20054;-45
2023/07/24 01:30:24;;;;;;;18.02;10.70;;;;;;;22.75;50.80;94831.38;5213888;22;20300;-46
2023/07/24 01:32:26;;;;;;;14.02;9.75;;;;;;;22.81;50.80;94825.13;5212211;22;20023;-45
2023/07/24 01:34:28;;;;;;;13.73;9.88;;;;;;;22.81;51.02;94825.94;5212981;22;20618;-43
2023/07/24 01:36:29;;;;;;;15.90;10.13;;;;;;;22.79;52.04;94820.00;5212001;22;20027;-43
2023/07/24 01:38:34;;;;;;;11.82;9.80;;;;;;;22.79;53.52;94827.22;5210906;22;20027;-44
2023/07/24 01:40:36;;;;;;;13.82;9.30;;;;;;;22.81;54.27;94833.13;5185843;22;20296;-46
2023/07/24 01:42:38;;;;;;;21.38;11.75;;;;;;;22.83;54.18;94850.56;5184400;22;20028;-45
2023/07/24 01:44:39;;;;;;;14.40;10.07;;;;;;;22.72;53.76;94856.69;5184756;22;20454;-45
2023/07/24 01:46:41;;;;;;;11.95;9.55;;;;;;;22.52;51.07;94853.53;5211370;22;20114;-45
2023/07/24 01:48:43;;;;;;;17.20;11.77;;;;;;;22.46;50.81;94849.94;5211436;22;20034;-47
2023/07/24 01:50:45;;;;;;;16.83;11.00;;;;;;;22.28;50.17;94848.13;5211688;22;20030;-46
2023/07/24 01:52:46;;;;;;;15.15;11.13;;;;;;;22.24;51.00;94852.28;5213063;22;20560;-45
2023/07/24 01:54:48;;;;;;;15.93;11.50;;;;;;;22.33;50.91;94853.63;5213711;22;20430;-45
2023/07/24 01:56:50;;;;;;;14.32;11.13;;;;;;;22.39;49.85;94841.19;5214119;22;20019;-45
2023/07/24 01:58:52;;;;;;;18.33;11.93;;;;;;;22.45;50.01;94840.28;5212406;22;20079;-45
2023/07/24 02:00:56;;;;;;;17.17;10.80;;;;;;;22.51;50.21;94841.22;5212497;22;20027;-47
2023/07/24 02:02:58;;;;;;;15.43;11.23;;;;;;;22.58;49.56;94852.59;5212461;22;20030;-51
2023/07/24 02:05:00;;;;;;;16.08;10.77;;;;;;;22.58;49.40;94856.09;5211724;22;20762;-52
2023/07/24 02:07:02;;;;;;;17.65;11.63;;;;;;;22.59;49.81;94848.91;5213616;22;20323;-50
2023/07/24 02:09:04;;;;;;;14.77;11.48;;;;;;;22.55;49.65;94837.88;5213091;22;20050;-56
2023/07/24 02:11:05;;;;;;;15.55;10.63;;;;;;;22.57;50.69;94835.78;5213262;22;20455;-52
2023/07/24 02:13:07;;;;;;;13.88;9.98;;;;;;;22.56;51.77;94841.34;5212985;22;20521;-53
2023/07/24 02:15:09;;;;;;;11.68;9.15;;;;;;;22.56;53.54;94849.34;5213116;22;20019;-52
2023/07/24 02:17:11;;;;;;;11.50;9.10;;;;;;;22.58;54.89;94841.94;5212610;22;20046;-53
2023/07/24 02:19:12;;;;;;;12.38;9.00;;;;;;;22.55;54.72;94845.06;5214313;22;20073;-53
2023/07/24 02:21:14;;;;;;;14.20;10.02;;;;;;;22.60;54.67;94839.84;5213965;22;20023;-54
2023/07/24 02:23:16;;;;;;;12.40;9.52;;;;;;;22.63;53.90;94842.06;5215413;22;20054;-54
2023/07/24 02:25:17;;;;;;;15.35;9.18;;;;;;;22.60;54.19;94837.19;5214686;22;20027;-52
2023/07/24 02:27:34;;;;;;;10.25;8.60;;;;;;;22.57;53.91;94834.97;5214695;22;20023;-54
2023/07/24 02:29:36;;;;;;;14.93;9.50;;;;;;;22.52;55.31;94840.19;5213447;22;20599;-53
2023/07/24 02:31:37;;;;;;;14.70;10.25;;;;;;;22.43;55.17;94832.50;5214779;22;20024;-53
2023/07/24 02:33:39;;;;;;;50.05;38.65;;;;;;;22.34;55.87;94830.41;5213278;22;20033;-51
2023/07/24 02:35:41;;;;;;;15.65;11.15;;;;;;;22.29;55.93;94831.09;5214398;22;20033;-55
2023/07/24 02:37:43;;;;;;;14.80;10.05;;;;;;;22.24;53.86;94830.94;5214878;22;20434;-52
2023/07/24 02:39:45;;;;;;;15.75;11.57;;;;;;;22.05;52.20;94832.88;5214567;22;20059;-55
2023/07/24 02:41:48;;;;;;;16.40;11.60;;;;;;;21.92;50.98;94839.19;5215086;22;20077;-55
2023/07/24 02:43:50;;;;;;;14.35;11.30;;;;;;;21.72;52.88;94838.63;5213402;22;20030;-55
2023/07/24 02:45:51;;;;;;;16.85;12.25;;;;;;;21.67;51.89;94832.13;5214497;22;20830;-51
2023/07/24 02:47:53;;;;;;;15.05;11.25;;;;;;;21.63;52.66;94830.13;5213588;22;20023;-53
2023/07/24 02:49:55;;;;;;;18.92;12.15;;;;;;;21.56;51.38;94838.22;5214093;22;20054;-51
2023/07/24 02:51:57;;;;;;;15.27;11.45;;;;;;;21.53;51.46;94832.50;5214960;22;20098;-53
2023/07/24 02:53:58;;;;;;;19.73;12.85;;;;;;;21.46;51.75;94829.91;5212876;22;20022;-50
2023/07/24 02:56:03;;;;;;;19.80;12.48;;;;;;;21.56;50.91;94832.06;5214979;22;20373;-45
2023/07/24 02:58:05;;;;;;;20.90;12.20;;;;;;;21.70;50.70;94830.84;5214382;22;20030;-45
2023/07/24 03:00:07;;;;;;;20.75;12.23;;;;;;;21.83;50.25;94841.38;5213711;22;20020;-44
2023/07/24 03:02:09;;;;;;;16.65;12.43;;;;;;;21.93;49.52;94838.13;5213036;22;20521;-48
2023/07/24 03:04:11;;;;;;;16.77;12.32;;;;;;;22.03;49.03;94833.06;5213283;22;20441;-44
2023/07/24 03:06:12;;;;;;;16.90;12.20;;;;;;;22.09;49.17;94828.66;5214763;22;20033;-47
2023/07/24 03:08:14;;;;;;;20.30;12.98;;;;;;;22.15;48.86;94818.97;5214014;22;20023;-49
2023/07/24 03:10:16;;;;;;;21.35;13.07;;;;;;;22.18;48.67;94829.19;5214647;22;20050;-48
2023/07/24 03:12:17;;;;;;;15.63;11.68;;;;;;;22.17;48.71;94830.22;5214604;22;20030;-45
2023/07/24 03:14:19;;;;;;;18.48;13.20;;;;;;;22.18;49.05;94822.00;5213671;22;20031;-46
2023/07/24 03:16:21;;;;;;;17.02;12.32;;;;;;;22.18;49.74;94830.00;5213939;22;20019;-47
2023/07/24 03:18:23;;;;;;;17.90;13.40;;;;;;;22.07;50.27;94826.25;5213696;22;20633;-45
2023/07/24 03:20:25;;;;;;;18.35;11.82;;;;;;;21.96;50.86;94824.38;5213454;22;20023;-44
2023/07/24 03:22:26;;;;;;;17.02;12.68;;;;;;;21.78;51.17;94827.06;5214825;22;20505;-46
2023/07/24 03:24:28;;;;;;;19.95;12.73;;;;;;;21.64;51.36;94829.09;5214221;22;20046;-44
2023/07/24 03:26:30;;;;;;;21.20;12.93;;;;;;;21.39;52.48;94829.97;5214409;22;20020;-44
2023/07/24 03:28:32;;;;;;;18.05;11.82;;;;;;;21.14;53.62;94838.03;5213751;22;20103;-48
2023/07/24 03:30:33;;;;;;;19.95;12.65;;;;;;;21.25;53.89;94836.47;5214514;22;20468;-45
2023/07/24 03:32:38;;;;;;;18.42;10.90;;;;;;;21.36;54.53;94840.25;5213057;22;20707;-43
2023/07/24 03:34:40;;;;;;;14.25;10.18;;;;;;;21.08;57.57;94833.63;5213777;22;20094;-42
2023/07/24 03:36:42;;;;;;;14.52;10.15;;;;;;;21.19;57.29;94838.19;5214269;22;20019;-47
2023/07/24 03:38:43;;;;;;;15.98;9.93;;;;;;;21.25;57.38;94839.16;5213721;22;20114;-45
2023/07/24 03:40:47;;;;;;;13.57;10.07;;;;;;;21.28;57.68;94834.19;5214394;22;20102;-42
2023/07/24 03:42:49;;;;;;;12.35;9.23;;;;;;;21.35;57.66;94833.31;5213508;22;20025;-44
2023/07/24 03:44:50;;;;;;;11.32;8.93;;;;;;;21.43;57.57;94833.84;5213930;22;20322;-47
2023/07/24 03:46:52;;;;;;;11.48;9.45;;;;;;;21.52;57.60;94833.56;5213485;22;20095;-48
2023/07/24 03:48:55;;;;;;;13.52;8.93;;;;;;;21.63;57.20;94838.13;5213511;22;20023;-44
2023/07/24 03:51:00;;;;;;;13.60;8.60;;;;;;;21.65;57.07;94830.72;5214049;22;20027;-45
2023/07/24 03:53:02;;;;;;;13.05;9.50;;;;;;;21.54;57.63;94842.16;5214672;22;20508;-45
2023/07/24 03:55:04;;;;;;;12.77;9.25;;;;;;;21.30;58.42;94841.16;5214368;22;20354;-45
2023/07/24 03:57:06;;;;;;;13.75;11.18;;;;;;;20.93;59.52;94846.44;5214263;22;20023;-45
2023/07/24 03:59:07;;;;;;;14.95;10.27;;;;;;;20.59;60.92;94837.97;5212671;22;20369;-47
2023/07/24 04:01:09;;;;;;;13.85;10.25;;;;;;;20.63;61.02;94837.31;5214443;22;20023;-46
2023/07/24 04:03:11;;;;;;;14.88;10.48;;;;;;;20.74;60.90;94838.44;5213288;22;20027;-47
2023/07/24 04:05:13;;;;;;;13.30;9.27;;;;;;;20.72;60.69;94840.50;5186163;22;20098;-48
2023/07/24 04:07:15;;;;;;;14.43;9.57;;;;;;;20.79;60.83;94841.25;5215114;22;20026;-49
2023/07/24 04:09:16;;;;;;;13.63;9.80;;;;;;;20.86;60.62;94857.16;5213069;22;20025;-46
2023/07/24 04:11:18;;;;;;;13.93;9.55;;;;;;;20.77;60.93;94853.97;5213436;22;20718;-45
2023/07/24 04:13:20;;;;;;;12.80;9.65;;;;;;;20.81;60.81;94857.81;5214367;22;20095;-50
2023/07/24 04:15:21;;;;;;;14.75;10.05;;;;;;;20.89;60.71;94861.22;5214520;22;20404;-48
2023/07/24 04:17:23;;;;;;;12.02;9.13;;;;;;;21.03;60.41;94866.22;5213930;22;20031;-47
2023/07/24 04:19:25;;;;;;;12.57;9.52;;;;;;;21.20;59.77;94852.31;5213626;22;20023;-49
2023/07/24 04:21:26;;;;;;;15.25;9.35;;;;;;;21.38;59.43;94856.84;5214514;22;20085;-47
2023/07/24 04:23:28;;;;;;;12.30;9.57;;;;;;;21.54;58.93;94853.63;5214489;22;20088;-48
2023/07/24 04:25:30;;;;;;;13.18;9.75;;;;;;;21.67;58.65;94857.97;5214910;22;20023;-50
2023/07/24 04:27:32;;;;;;;14.05;9.77;;;;;;;21.78;57.97;94853.72;5213757;22;20045;-45
2023/07/24 04:29:33;;;;;;;17.00;9.80;;;;;;;21.85;57.68;94855.28;5213625;22;20106;-47
2023/07/24 04:31:35;;;;;;;16.88;9.70;;;;;;;21.93;57.55;94856.00;5214573;22;20023;-48
2023/07/24 04:33:37;;;;;;;22.30;10.85;;;;;;;21.97;57.35;94851.84;5212839;22;20453;-46
2023/07/24 04:35:38;;;;;;;22.10;10.18;;;;;;;22.07;57.22;94855.59;5213504;22;20023;-47
2023/07/24 04:37:40;;;;;;;15.98;9.68;;;;;;;22.17;56.86;94852.38;5213981;22;20088;-47
2023/07/24 04:39:42;;;;;;;17.05;10.25;;;;;;;22.30;56.22;94851.38;5213517;22;20031;-47
2023/07/24 04:41:43;;;;;;;17.50;10.57;;;;;;;22.40;56.48;94846.31;5213699;22;20023;-48
2023/07/24 04:43:45;;;;;;;17.42;10.25;;;;;;;22.46;56.24;94844.59;5212575;22;20429;-49
2023/07/24 04:45:47;;;;;;;15.25;9.93;;;;;;;22.44;56.47;94852.81;5213606;22;20019;-48
2023/07/24 04:47:49;;;;;;;13.10;10.13;;;;;;;22.15;56.51;94854.44;5186095;22;20019;-45
2023/07/24 04:49:50;;;;;;;15.02;10.30;;;;;;;21.91;57.69;94856.22;5213508;22;20030;-46
2023/07/24 04:51:52;;;;;;;18.50;11.13;;;;;;;21.96;57.52;94853.72;5214269;22;20315;-47
2023/07/24 04:53:54;;;;;;;18.60;12.15;;;;;;;21.79;57.28;94861.50;5214373;22;20027;-46
2023/07/24 04:55:55;;;;;;;21.85;13.07;;;;;;;21.91;57.09;94860.75;5186723;22;20023;-46
2023/07/24 04:57:57;;;;;;;18.08;11.85;;;;;;;21.95;56.87;94862.72;5214479;22;20023;-48
2023/07/24 04:59:59;;;;;;;14.27;11.60;;;;;;;21.91;56.42;94861.56;5213841;22;20443;-48
2023/07/24 05:02:00;;;;;;;18.73;12.07;;;;;;;22.02;56.55;94871.44;5213374;22;20019;-51
2023/07/24 05:04:02;;;;;;;18.80;12.10;;;;;;;22.08;55.94;94861.75;5213391;22;20019;-47
2023/07/24 05:06:04;;;;;;;17.50;11.77;;;;;;;22.14;55.84;94866.16;5215491;22;20102;-46
2023/07/24 05:08:06;;;;;;;13.93;11.18;;;;;;;22.24;55.42;94868.31;5214297;22;20416;-43
2023/07/24 05:10:08;;;;;;;18.55;12.10;;;;;;;22.17;55.29;94862.22;5213796;22;20065;-48
2023/07/24 05:12:09;;;;;;;15.43;12.00;;;;;;;22.23;55.00;94869.38;5186978;22;20024;-47
2023/07/24 05:14:11;;;;;;;15.32;12.60;;;;;;;22.35;54.90;94864.88;5214100;22;20023;-48
2023/07/24 05:16:13;;;;;;;19.38;12.65;;;;;;;22.49;54.64;94860.94;5214052;22;20023;-47
2023/07/24 05:18:14;;;;;;;22.27;13.25;;;;;;;22.68;53.83;94861.69;5213616;22;20106;-43
2023/07/24 05:20:16;;;;;;;20.73;13.60;;;;;;;22.85;53.73;94861.81;5213902;22;20027;-49
2023/07/24 05:22:18;;;;;;;17.48;13.10;;;;;;;22.97;53.08;94858.31;5214875;22;20042;-46
2023/07/24 05:24:19;;;;;;;19.33;13.18;;;;;;;23.08;52.89;94854.88;5213600;22;20027;-51
2023/07/24 05:26:22;;;;;;;17.58;11.88;;;;;;;23.04;50.28;94859.06;5214785;22;20632;-52
2023/07/24 05:28:25;;;;;;;18.65;13.02;;;;;;;22.96;51.57;94851.38;5214309;22;20027;-46
2023/07/24 05:30:28;;;;;;;17.83;12.90;;;;;;;22.97;50.89;94856.47;5214887;22;20027;-48
2023/07/24 05:32:29;;;;;;;16.27;12.65;;;;;;;23.08;51.11;94855.69;5212457;22;20117;-47
2023/07/24 05:34:31;;;;;;;18.13;12.90;;;;;;;23.24;51.07;94856.84;5214078;22;20571;-46
2023/07/24 05:36:33;;;;;;;18.08;13.35;;;;;;;23.40;50.18;94854.50;5214536;22;20933;-46
2023/07/24 05:38:35;;;;;;;20.42;13.20;;;;;;;23.45;50.26;94851.94;5212931;22;20034;-46
2023/07/24 05:40:36;;;;;;;17.60;12.30;;;;;;;23.46;50.48;94854.34;5213216;22;20019;-49
2023/07/24 05:42:41;;;;;;;17.40;12.73;;;;;;;23.41;50.98;94848.91;5214001;22;20050;-45
2023/07/24 05:44:43;;;;;;;19.20;12.13;;;;;;;23.51;50.73;94859.00;5213115;22;20027;-46
2023/07/24 05:46:44;;;;;;;16.05;11.75;;;;;;;23.52;51.12;94853.41;5213228;22;20046;-49
2023/07/24 05:48:46;;;;;;;18.00;12.20;;;;;;;23.61;51.20;94851.19;5211773;22;20023;-47
2023/07/24 05:50:49;;;;;;;19.55;12.80;;;;;;;23.62;51.37;94839.47;5213563;22;20030;-44
2023/07/24 05:52:51;;;;;;;16.35;12.45;;;;;;;23.54;51.04;94842.50;5214223;22;20019;-50
2023/07/24 05:54:52;;;;;;;18.10;13.18;;;;;;;23.61;50.99;94839.69;5214205;22;20029;-51
2023/07/24 05:56:54;;;;;;;17.48;13.52;;;;;;;23.61;51.61;94837.81;5214432;22;20473;-46
2023/07/24 05:58:56;;;;;;;18.23;13.35;;;;;;;23.54;50.91;94841.69;5213850;22;20027;-47
2023/07/24 06:00:57;;;;;;;20.02;12.50;;;;;;;23.56;50.74;94834.25;5214609;22;20027;-49
2023/07/24 06:02:59;;;;;;;21.35;14.20;;;;;;;23.66;50.52;94831.75;5213040;22;20094;-46
2023/07/24 06:05:01;;;;;;;21.77;13.32;;;;;;;23.78;50.04;94829.09;5213198;22;20390;-48
2023/07/24 06:07:03;;;;;;;17.17;12.98;;;;;;;23.93;49.85;94832.03;5214081;22;20027;-45
2023/07/24 06:09:05;;;;;;;23.73;13.35;;;;;;;24.03;49.72;94832.25;5213727;22;20030;-46
2023/07/24 06:11:07;;;;;;;18.52;13.32;;;;;;;24.05;49.71;94830.13;5213372;22;20410;-45
2023/07/24 06:13:08;;;;;;;21.30;12.63;;;;;;;24.19;50.00;94829.84;5214007;22;20077;-46
2023/07/24 06:15:10;;;;;;;19.23;13.30;;;;;;;24.29;49.48;94833.50;5214125;22;20462;-46
2023/07/24 06:17:12;;;;;;;19.35;12.20;;;;;;;24.18;49.48;94834.38;5213307;22;20035;-45
2023/07/24 06:19:13;;;;;;;19.85;13.02;;;;;;;24.07;49.38;94836.06;5214023;22;20089;-48
2023/07/24 06:21:15;;;;;;;19.00;12.82;;;;;;;24.14;49.42;94832.44;5214613;22;20061;-48
2023/07/24 06:23:17;;;;;;;18.60;12.18;;;;;;;24.15;49.20;94828.69;5215174;22;20023;-46
2023/07/24 06:25:18;;;;;;;17.58;12.40;;;;;;;24.16;48.70;94831.13;5187383;22;20157;-46
2023/07/24 06:27:20;;;;;;;18.80;12.38;;;;;;;24.30;48.81;94829.75;5213920;22;20023;-46
2023/07/24 06:29:22;;;;;;;17.15;12.43;;;;;;;24.36;48.37;94828.00;5213604;22;20031;-45
2023/07/24 06:31:24;;;;;;;16.17;12.32;;;;;;;24.29;48.98;94830.03;5215039;22;20023;-55
2023/07/24 06:33:25;;;;;;;17.63;12.38;;;;;;;24.32;48.65;94835.69;5212707;22;20054;-49
2023/07/24 06:35:27;;;;;;;18.10;12.85;;;;;;;24.49;48.42;94834.94;5213733;22;20369;-47
2023/07/24 06:37:29;;;;;;;18.38;12.73;;;;;;;24.63;48.69;94828.22;5214867;22;20366;-50
2023/07/24 06:39:30;;;;;;;18.98;13.07;;;;;;;24.83;48.50;94826.91;5213720;22;20473;-48
2023/07/24 06:41:32;;;;;;;20.17;11.88;;;;;;;24.84;48.56;94825.81;5212510;22;20019;-44
2023/07/24 06:43:34;;;;;;;16.17;12.23;;;;;;;24.81;48.68;94829.81;5211649;22;20019;-46
2023/07/24 06:45:36;;;;;;;16.55;12.75;;;;;;;24.69;49.06;94829.09;5214533;22;20077;-49
2023/07/24 06:47:37;;;;;;;20.30;12.82;;;;;;;24.62;49.34;94823.88;5212455;22;20507;-50
2023/07/24 06:49:39;;;;;;;21.50;12.50;;;;;;;24.73;49.51;94824.84;5213018;22;20020;-52
2023/07/24 06:51:41;;;;;;;17.17;12.35;;;;;;;24.49;50.01;94830.38;5214531;22;20359;-55
2023/07/24 06:53:43;;;;;;;17.20;12.00;;;;;;;24.38;50.24;94828.56;5213840;22;20027;-55
2023/07/24 06:55:44;;;;;;;17.10;12.27;;;;;;;24.51;50.53;94828.28;5214036;22;20019;-54
2023/07/24 06:57:46;;;;;;;16.05;12.30;;;;;;;24.53;49.99;94823.47;5213464;22;20077;-57
2023/07/24 06:59:48;;;;;;;15.43;11.32;;;;;;;24.60;50.19;94827.88;5213666;22;20065;-53
2023/07/24 07:01:49;;;;;;;19.33;12.18;;;;;;;24.41;50.40;94833.41;5214181;22;20031;-56
2023/07/24 07:03:51;;;;;;;19.27;13.02;;;;;;;24.39;50.29;94840.88;5213696;22;20029;-56
2023/07/24 07:05:59;;;;;;;17.05;11.32;;;;;;;24.45;50.67;94834.56;5215093;22;20031;-53
2023/07/24 07:08:00;;;;;;;21.30;11.00;;;;;;;24.61;50.39;94834.84;5215978;22;20019;-55
2023/07/24 07:10:02;;;;;;;15.93;12.05;;;;;;;24.81;49.95;94834.38;5214867;22;20113;-55
2023/07/24 07:12:04;;;;;;;15.70;11.88;;;;;;;25.07;48.94;94836.34;5215566;22;20027;-57
2023/07/24 07:14:08;;;;;;;17.20;11.55;;;;;;;25.05;49.11;94829.63;5215208;22;20033;-57
2023/07/24 07:16:10;;;;;;;14.73;11.07;;;;;;;24.98;49.32;94842.41;5215676;22;20078;-54
2023/07/24 07:18:12;;;;;;;17.05;11.20;;;;;;;24.88;49.39;94827.75;5213902;22;20080;-57
2023/07/24 07:20:13;;;;;;;31.17;11.10;;;;;;;24.98;49.38;94832.47;5214149;22;20030;-55
2023/07/24 07:22:15;;;;;;;17.20;11.13;;;;;;;24.91;49.65;94827.28;5215420;22;20031;-58
2023/07/24 07:24:17;;;;;;;20.42;10.95;;;;;;;25.12;49.42;94819.53;5214452;22;20335;-61
2023/07/24 07:26:19;;;;;;;23.58;11.13;;;;;;;25.43;48.89;94818.09;5214205;22;20027;-54
2023/07/24 07:28:21;;;;;;;16.55;11.35;;;;;;;25.48;48.34;94814.69;5215067;22;20023;-56
2023/07/24 07:30:22;;;;;;;19.17;11.70;;;;;;;25.65;47.19;94819.97;5215478;22;20022;-55
2023/07/24 07:32:24;;;;;;;18.40;10.98;;;;;;;25.85;47.01;94814.81;5214157;22;20059;-54
2023/07/24 07:34:26;;;;;;;15.07;10.38;;;;;;;26.02;46.84;94814.78;5215006;22;20102;-54
2023/07/24 07:36:28;;;;;;;18.10;10.73;;;;;;;26.15;46.46;94814.34;5215120;22;20469;-53
2023/07/24 07:38:30;;;;;;;14.27;10.43;;;;;;;26.24;46.18;94813.91;5214093;22;20027;-55
2023/07/24 07:40:32;;;;;;;15.88;11.23;;;;;;;26.20;45.98;94813.63;5215159;22;20061;-56
2023/07/24 07:42:33;;;;;;;14.48;10.48;;;;;;;26.22;46.15;94813.34;5214823;22;20027;-58
2023/07/24 07:44:37;;;;;;;21.20;13.80;;;;;;;26.15;45.90;94811.69;5214485;22;20038;-56
2023/07/24 07:46:39;;;;;;;15.68;11.05;;;;;;;26.29;45.69;94813.97;5214431;22;20023;-57
2023/07/24 07:48:41;;;;;;;17.02;11.10;;;;;;;26.25;46.23;94812.84;5213517;22;20019;-56
2023/07/24 07:50:42;;;;;;;16.70;12.23;;;;;;;26.40;45.50;94820.25;5214907;22;20058;-57
2023/07/24 07:52:44;;;;;;;13.30;10.13;;;;;;;26.46;45.36;94809.28;5215164;22;20027;-53
2023/07/24 07:54:47;;;;;;;16.30;11.25;;;;;;;26.57;45.06;94804.03;5213145;22;20080;-54
2023/07/24 07:56:49;;;;;;;16.67;10.90;;;;;;;26.62;45.33;94804.88;5215571;22;20031;-56
2023/07/24 07:58:50;;;;;;;22.25;11.23;;;;;;;26.77;45.27;94810.34;5214330;22;20020;-58
2023/07/24 08:00:52;;;;;;;15.23;10.25;;;;;;;26.89;45.30;94804.00;5215085;22;20023;-58
2023/07/24 08:02:53;;;;;;;15.48;10.32;;;;;;;26.63;45.28;94803.81;5214343;22;20023;-57
2023/07/24 08:04:55;;;;;;;17.77;10.52;;;;;;;26.43;45.79;94807.09;5214042;22;20078;-59
2023/07/24 08:06:57;;;;;;;15.52;10.55;;;;;;;26.60;45.44;94807.00;5213839;22;20019;-57
2023/07/24 08:08:59;;;;;;;17.52;10.63;;;;;;;26.72;45.24;94809.53;5215350;22;20101;-56
2023/07/24 08:11:07;;;;;;;16.23;11.45;;;;;;;26.88;44.97;94800.47;5214106;22;20031;-56
2023/07/24 08:13:09;;;;;;;20.88;10.95;;;;;;;27.10;44.90;94804.91;5214239;22;20080;-55
2023/07/24 08:15:11;;;;;;;15.98;10.40;;;;;;;27.34;44.88;94808.84;5214659;22;20094;-54
2023/07/24 08:17:13;;;;;;;14.77;10.02;;;;;;;27.44;44.01;94800.00;5213815;22;20055;-57
2023/07/24 08:19:14;;;;;;;14.45;10.35;;;;;;;27.53;43.55;94798.47;5214440;22;20027;-53
2023/07/24 08:21:16;;;;;;;15.93;11.10;;;;;;;27.45;43.48;94796.28;5215173;22;20023;-53
2023/07/24 08:23:18;;;;;;;15.68;10.18;;;;;;;27.48;44.37;94800.31;5214695;22;20058;-55
2023/07/24 08:25:19;;;;;;;15.52;10.60;;;;;;;27.57;43.43;94794.16;5187717;22;20027;-55
2023/07/24 08:27:21;;;;;;;14.98;10.15;;;;;;;27.63;43.23;94784.22;5213891;22;20027;-52
2023/07/24 08:29:23;;;;;;;18.58;10.40;;;;;;;27.60;43.16;94781.22;5213705;22;20430;-60
2023/07/24 08:31:24;;;;;;;20.77;13.05;;;;;;;27.51;43.20;94775.56;5215344;22;20486;-51
2023/07/24 08:33:26;;;;;;;16.42;11.80;;;;;;;27.74;43.45;94775.09;5213938;22;20027;-54
2023/07/24 08:35:28;;;;;;;15.90;10.27;;;;;;;27.88;42.85;94774.66;5214503;22;20078;-56
2023/07/24 08:37:30;;;;;;;17.40;11.13;;;;;;;27.86;42.59;94779.47;5214078;22;20361;-56
2023/07/24 08:39:32;;;;;;;14.38;10.48;;;;;;;27.81;42.15;94779.44;5214958;22;20030;-58
2023/07/24 08:41:35;;;;;;;19.55;11.32;;;;;;;27.71;41.92;94775.63;5214666;22;20110;-58
2023/07/24 08:43:39;;;;;;;17.17;10.93;;;;;;;27.70;42.23;94767.81;5213538;22;20054;-52
2023/07/24 08:45:41;;;;;;;17.58;11.60;;;;;;;27.89;41.89;94768.19;5214868;22;20492;-53
2023/07/24 08:47:44;;;;;;;14.55;11.23;;;;;;;28.13;41.65;94771.97;5213351;22;20495;-56
2023/07/24 08:49:46;;;;;;;20.95;11.27;;;;;;;28.37;41.25;94764.19;5213837;22;20135;-55
2023/07/24 08:51:48;;;;;;;23.00;12.65;;;;;;;28.48;41.00;94765.03;5187979;22;20450;-52
2023/07/24 08:53:50;;;;;;;17.20;11.65;;;;;;;28.33;40.87;94771.19;5213345;22;20023;-48
2023/07/24 08:55:52;;;;;;;21.48;11.50;;;;;;;28.38;41.02;94768.50;5187316;22;20019;-51
2023/07/24 08:57:54;;;;;;;14.52;10.93;;;;;;;28.60;40.49;94770.16;5213021;22;20023;-55
2023/07/24 08:59:56;;;;;;;17.35;10.63;;;;;;;28.80;40.38;94769.31;5214125;22;20077;-54
2023/07/24 09:01:57;;;;;;;18.40;11.93;;;;;;;28.56;40.05;94769.06;5214062;22;20027;-57
2023/07/24 09:03:59;;;;;;;19.77;11.80;;;;;;;28.63;39.86;94768.78;5213651;22;20019;-55
2023/07/24 09:06:01;;;;;;;17.17;10.77;;;;;;;28.44;40.28;94766.63;5213480;22;20102;-49
2023/07/24 09:08:03;;;;;;;17.98;10.93;;;;;;;28.65;40.36;94764.75;5213941;22;20555;-54
2023/07/24 09:10:06;;;;;;;16.98;10.52;;;;;;;28.82;39.98;94761.75;5214467;22;20239;-57
2023/07/24 09:12:15;;;;;;;19.33;10.30;;;;;;;29.03;38.97;94756.34;5214181;22;20042;-58
2023/07/24 09:14:24;;;;;;;22.35;11.77;;;;;;;29.14;38.97;94752.56;5214996;22;20421;-59
2023/07/24 09:16:26;;;;;;;19.80;10.85;;;;;;;29.30;38.96;94750.63;5214399;22;20020;-56
2023/07/24 09:18:44;;;;;;;25.55;11.27;;;;;;;29.48;38.17;94749.19;5213378;22;20094;-54
2023/07/24 09:20:45;;;;;;;19.05;11.35;;;;;;;29.61;38.48;94748.59;5215062;22;20027;-56
2023/07/24 09:22:51;;;;;;;22.45;12.10;;;;;;;29.64;37.76;94753.41;5214416;22;20031;-50